Terminal Aerodrome Forecast
Issued by NWS Wakefield, VA

Home | Current Version | Previous Version | Text Only | Print | Product List | Glossary On
Versions: 1 2 3 4 5 6 7 8 9 10 11 12 13 14 15 16 17 18 19 20 21 22
000
FTUS41 KAKQ 230847 AAB
TAFECG
TAF AMD
KECG 230847Z 2309/2406 01010KT P6SM BKN010 OVC015
     FM231000 04009KT P6SM VCSH OVC010
     FM231200 05009KT P6SM -SHRA OVC010
     FM231500 05012G19KT P6SM VCSH OVC015
     FM232100 06011KT P6SM -SHRA OVC007=

USA.gov is the U.S. government's official web portal to all federal, state and local government web resources and services.